| time (UTC) | temp C | wind direction | speed KPH | gust KPH | rain 1hr cm | rain 24hr cm | rain mn cm | humidity % | barometer mb |
| 20260507074055 | 11 | 333 | 9.7 | 17.7 | 0.00 | 0.91 | 0.00 | 42 | 1014.6 |
| 20260507073558 | 11 | 10 | 9.7 | 17.7 | 0.00 | 0.91 | 0.00 | 42 | 1014.6 |
| 20260507073100 | 11 | 328 | 12.9 | 17.7 | 0.00 | 0.91 | 0.00 | 42 | 1015.0 |
| 20260507072556 | 11 | 332 | 9.7 | 14.5 | 0.00 | 0.91 | 0.00 | 42 | 1015.0 |
| 20260507072058 | 11 | 334 | 4.8 | 16.1 | 0.00 | 0.91 | 0.00 | 42 | 1014.9 |
| 20260507071602 | 11 | 355 | 9.7 | 17.7 | 0.00 | 0.91 | 0.00 | 42 | 1014.9 |
| 20260507071055 | 11 | 348 | 9.7 | 17.7 | 0.00 | 0.91 | 0.00 | 42 | 1014.9 |
| 20260507070555 | 11 | 332 | 9.7 | 14.5 | 0.00 | 0.91 | 0.00 | 42 | 1014.6 |
| 20260507070109 | 11 | 17 | 6.4 | 17.7 | 0.00 | 0.91 | 0.00 | 42 | 1014.5 |
| 20260507065555 | 11 | 12 | 9.7 | 17.7 | 0.00 | 0.91 | 0.00 | 42 | 1014.9 |
| 20260507065055 | 11 | 120 | 9.7 | 22.5 | 0.00 | 0.91 | 0.00 | 42 | 1014.4 |
| 20260507064601 | 11 | 11 | 11.3 | 22.5 | 0.00 | 0.91 | 0.00 | 42 | 1014.0 |
| 20260507064055 | 11 | 11 | 12.9 | 22.5 | 0.00 | 0.91 | 0.00 | 43 | 1014.2 |
| 20260507063553 | 11 | 16 | 12.9 | 17.7 | 0.00 | 0.91 | 0.00 | 43 | 1013.9 |
| 20260507063102 | 11 | 9 | 11.3 | 19.3 | 0.00 | 0.91 | 0.00 | 43 | 1014.3 |
| 20260507062554 | 11 | 12 | 8.0 | 19.3 | 0.00 | 0.91 | 0.00 | 43 | 1014.6 |
| 20260507062057 | 11 | 1 | 11.3 | 19.3 | 0.00 | 0.91 | 0.00 | 43 | 1014.2 |
| 20260507061559 | 11 | 314 | 9.7 | 16.1 | 0.00 | 0.91 | 0.00 | 43 | 1014.3 |
| 20260507061057 | 11 | 4 | 8.0 | 16.1 | 0.00 | 0.91 | 0.00 | 43 | 1014.7 |
| 20260507060555 | 11 | 8 | 9.7 | 16.1 | 0.00 | 0.91 | 0.00 | 43 | 1014.6 |
| 20260507060112 | 11 | 293 | 9.7 | 16.1 | 0.00 | 0.91 | 0.00 | 43 | 1014.5 |
| 20260507055556 | 11 | 27 | 8.0 | 14.5 | 0.00 | 0.91 | 0.00 | 43 | 1014.6 |
| 20260507055055 | 11 | 19 | 4.8 | 16.1 | 0.00 | 0.91 | 0.00 | 44 | 1014.4 |
| 20260507054055 | 11 | 25 | 8.0 | 14.5 | 0.00 | 0.91 | 0.00 | 44 | 1014.5 |
| 20260507053555 | 11 | 342 | 3.2 | 11.3 | 0.00 | 0.91 | 0.00 | 44 | 1014.7 |
| 20260507053100 | 11 | 0 | 0.0 | 12.9 | 0.00 | 0.91 | 0.00 | 45 | 1014.6 |
| 20260507052555 | 11 | 38 | 1.6 | 12.9 | 0.03 | 0.91 | 0.00 | 45 | 1014.5 |
| 20260507052055 | 11 | 0 | 6.4 | 16.1 | 0.15 | 0.91 | 0.00 | 45 | 1014.1 |
| 20260507051559 | 11 | 44 | 3.2 | 16.1 | 0.74 | 0.91 | 0.00 | 46 | 1014.4 |
| 20260507051054 | 11 | 349 | 9.7 | 19.3 | 0.81 | 0.91 | 0.00 | 46 | 1014.4 |
| 20260507050555 | 11 | 19 | 9.7 | 19.3 | 0.81 | 0.91 | 0.00 | 47 | 1014.4 |
| 20260507050100 | 11 | 342 | 11.3 | 19.3 | 0.81 | 0.91 | 0.00 | 47 | 1014.6 |
| 20260507045556 | 11 | 7 | 6.4 | 19.3 | 0.81 | 0.91 | 0.91 | 48 | 1014.1 |
| 20260507045056 | 11 | 341 | 9.7 | 19.3 | 0.81 | 0.91 | 0.91 | 48 | 1013.8 |
| 20260507044605 | 11 | 21 | 9.7 | 17.7 | 0.81 | 0.91 | 0.91 | 49 | 1013.8 |
| 20260507044055 | 11 | 11 | 8.0 | 17.7 | 0.81 | 0.91 | 0.91 | 51 | 1014.2 |
| 20260507043555 | 11 | 14 | 8.0 | 14.5 | 0.81 | 0.91 | 0.91 | 52 | 1014.3 |
| 20260507043101 | 11 | 0 | 1.6 | 20.9 | 0.81 | 0.91 | 0.91 | 54 | 1014.2 |
| 20260507042553 | 11 | 6 | 6.4 | 27.4 | 0.79 | 0.89 | 0.89 | 58 | 1014.1 |
| 20260507042058 | 12 | 19 | 12.9 | 27.4 | 0.66 | 0.76 | 0.76 | 66 | 1013.9 |
| 20260507041558 | 12 | 339 | 17.7 | 24.1 | 0.08 | 0.18 | 0.18 | 76 | 1014.4 |
| 20260507041057 | 12 | 329 | 14.5 | 24.1 | 0.00 | 0.10 | 0.10 | 78 | 1014.9 |
| 20260507040555 | 12 | 339 | 14.5 | 24.1 | 0.00 | 0.10 | 0.10 | 79 | 1014.3 |
| 20260507040056 | 12 | 34 | 14.5 | 24.1 | 0.00 | 0.10 | 0.10 | 79 | 1013.8 |
| 20260507035555 | 12 | 14 | 12.9 | 24.1 | 0.00 | 0.10 | 0.10 | 80 | 1013.4 |
| 20260507035055 | 12 | 32 | 9.7 | 29.0 | 0.00 | 0.10 | 0.10 | 80 | 1013.7 |
| 20260507034600 | 12 | 15 | 11.3 | 29.0 | 0.00 | 0.10 | 0.10 | 80 | 1013.5 |
| 20260507034055 | 12 | 357 | 6.4 | 25.7 | 0.00 | 0.10 | 0.10 | 79 | 1014.2 |
| 20260507033556 | 12 | 27 | 11.3 | 25.7 | 0.00 | 0.10 | 0.10 | 79 | 1013.5 |
| 20260507033056 | 12 | 340 | 11.3 | 22.5 | 0.00 | 0.10 | 0.10 | 79 | 1014.1 |
| 20260507032555 | 12 | 23 | 14.5 | 20.9 | 0.00 | 0.10 | 0.10 | 79 | 1014.3 |
| 20260507032055 | 12 | 340 | 14.5 | 27.4 | 0.00 | 0.10 | 0.10 | 79 | 1014.3 |
| 20260507031600 | 12 | 2 | 14.5 | 27.4 | 0.00 | 0.10 | 0.10 | 79 | 1014.3 |
| 20260507031055 | 12 | 333 | 14.5 | 29.0 | 0.00 | 0.10 | 0.10 | 79 | 1014.0 |
| 20260507030555 | 12 | 354 | 14.5 | 29.0 | 0.00 | 0.10 | 0.10 | 79 | 1014.3 |
| 20260507030057 | 12 | 354 | 16.1 | 27.4 | 0.00 | 0.10 | 0.10 | 79 | 1014.3 |
| 20260507025555 | 12 | 358 | 12.9 | 22.5 | 0.00 | 0.10 | 0.10 | 79 | 1014.1 |
| 20260507025055 | 12 | 19 | 11.3 | 24.1 | 0.00 | 0.10 | 0.10 | 79 | 1014.3 |
| 20260507024602 | 12 | 0 | 9.7 | 24.1 | 0.00 | 0.10 | 0.10 | 79 | 1014.3 |
| 20260507024055 | 12 | 6 | 11.3 | 22.5 | 0.00 | 0.10 | 0.10 | 79 | 1013.9 |
| 20260507023555 | 12 | 289 | 11.3 | 22.5 | 0.00 | 0.10 | 0.10 | 79 | 1014.0 |
| 20260507023058 | 12 | 39 | 12.9 | 22.5 | 0.00 | 0.10 | 0.10 | 80 | 1013.9 |
| 20260507022555 | 12 | 13 | 12.9 | 24.1 | 0.00 | 0.10 | 0.10 | 80 | 1014.2 |
| 20260507022052 | 12 | 342 | 12.9 | 24.1 | 0.00 | 0.10 | 0.10 | 79 | 1014.1 |
| 20260507021601 | 12 | 30 | 11.3 | 22.5 | 0.00 | 0.10 | 0.10 | 79 | 1014.1 |
| 20260507021052 | 12 | 314 | 11.3 | 22.5 | 0.00 | 0.10 | 0.10 | 79 | 1013.9 |
| 20260507020556 | 12 | 337 | 12.9 | 22.5 | 0.00 | 0.10 | 0.10 | 79 | 1013.9 |
| 20260507020101 | 12 | 0 | 6.4 | 22.5 | 0.00 | 0.10 | 0.10 | 79 | 1013.6 |
| 20260507015555 | 12 | 0 | 6.4 | 25.7 | 0.00 | 0.10 | 0.10 | 80 | 1013.0 |
| 20260507015052 | 12 | 37 | 11.3 | 29.0 | 0.00 | 0.10 | 0.10 | 80 | 1013.0 |
| 20260507014553 | 12 | 23 | 14.5 | 29.0 | 0.00 | 0.10 | 0.10 | 80 | 1012.9 |
| 20260507014052 | 12 | 356 | 16.1 | 24.1 | 0.00 | 0.10 | 0.10 | 80 | 1012.9 |
| 20260507013557 | 12 | 327 | 16.1 | 25.7 | 0.00 | 0.10 | 0.10 | 79 | 1012.8 |
| 20260507013058 | 12 | 4 | 11.3 | 29.0 | 0.00 | 0.10 | 0.10 | 79 | 1012.7 |
| 20260507012556 | 12 | 356 | 16.1 | 33.8 | 0.00 | 0.10 | 0.10 | 79 | 1012.7 |
| 20260507012055 | 12 | 11 | 17.7 | 33.8 | 0.00 | 0.10 | 0.10 | 80 | 1012.6 |
| 20260507011558 | 12 | 343 | 16.1 | 29.0 | 0.00 | 0.10 | 0.10 | 80 | 1012.9 |
| 20260507011055 | 12 | 359 | 17.7 | 29.0 | 0.00 | 0.10 | 0.10 | 80 | 1012.7 |
| 20260507010555 | 12 | 5 | 14.5 | 29.0 | 0.00 | 0.10 | 0.10 | 80 | 1012.9 |
| 20260507010110 | 12 | 10 | 16.1 | 25.7 | 0.00 | 0.10 | 0.10 | 80 | 1012.9 |
| 20260507005556 | 12 | 346 | 14.5 | 24.1 | 0.00 | 0.10 | 0.10 | 81 | 1013.2 |
| 20260507005055 | 12 | 314 | 11.3 | 19.3 | 0.00 | 0.10 | 0.10 | 80 | 1013.4 |
| 20260507004554 | 12 | 323 | 8.0 | 22.5 | 0.00 | 0.10 | 0.10 | 80 | 1013.0 |
| 20260507004055 | 12 | 26 | 11.3 | 25.7 | 0.00 | 0.10 | 0.10 | 80 | 1012.9 |
| 20260507003555 | 12 | 321 | 16.1 | 29.0 | 0.00 | 0.10 | 0.10 | 81 | 1012.9 |
| 20260507003056 | 12 | 5 | 17.7 | 29.0 | 0.00 | 0.10 | 0.10 | 82 | 1012.4 |
| 20260507002554 | 12 | 350 | 14.5 | 30.6 | 0.00 | 0.10 | 0.10 | 81 | 1012.4 |
| 20260507002055 | 12 | 27 | 12.9 | 30.6 | 0.00 | 0.10 | 0.10 | 81 | 1012.4 |
| 20260507001559 | 12 | 316 | 16.1 | 30.6 | 0.00 | 0.10 | 0.10 | 82 | 1012.4 |
| 20260507001054 | 12 | 23 | 14.5 | 24.1 | 0.00 | 0.10 | 0.10 | 81 | 1012.2 |
| 20260507000557 | 13 | 3 | 14.5 | 27.4 | 0.00 | 0.10 | 0.10 | 81 | 1012.5 |
| 20260507000101 | 13 | 23 | 11.3 | 29.0 | 0.00 | 0.10 | 0.10 | 81 | 1012.7 |
| 20260506235556 | 13 | 356 | 11.3 | 29.0 | 0.00 | 0.10 | 0.10 | 81 | 1012.8 |
| 20260506235058 | 13 | 21 | 16.1 | 29.0 | 0.00 | 0.10 | 0.10 | 82 | 1012.8 |
| 20260506234602 | 13 | 326 | 14.5 | 27.4 | 0.00 | 0.10 | 0.10 | 82 | 1013.1 |
| 20260506234055 | 13 | 18 | 12.9 | 27.4 | 0.00 | 0.10 | 0.10 | 82 | 1012.8 |
| 20260506233552 | 13 | 21 | 16.1 | 27.4 | 0.00 | 0.10 | 0.10 | 82 | 1012.9 |
| 20260506233105 | 13 | 9 | 14.5 | 24.1 | 0.00 | 0.10 | 0.10 | 82 | 1012.9 |
| 20260506232554 | 13 | 340 | 12.9 | 22.5 | 0.00 | 0.10 | 0.10 | 81 | 1012.8 |
| 20260506232054 | 13 | 359 | 9.7 | 22.5 | 0.00 | 0.10 | 0.10 | 82 | 1012.8 |
| 20260506231558 | 13 | 6 | 11.3 | 22.5 | 0.00 | 0.10 | 0.10 | 82 | 1012.7 |
| 20260506231055 | 13 | 11 | 6.4 | 20.9 | 0.00 | 0.10 | 0.10 | 83 | 1012.8 |
| 20260506230556 | 13 | 8 | 4.8 | 22.5 | 0.00 | 0.10 | 0.10 | 82 | 1012.9 |
| 20260506230059 | 13 | 15 | 14.5 | 22.5 | 0.00 | 0.10 | 0.10 | 82 | 1012.5 |
| 20260506225558 | 13 | 351 | 14.5 | 20.9 | 0.00 | 0.10 | 0.10 | 82 | 1012.4 |
| 20260506225059 | 13 | 352 | 11.3 | 20.9 | 0.00 | 0.10 | 0.10 | 82 | 1012.3 |
| 20260506224600 | 13 | 0 | 9.7 | 19.3 | 0.00 | 0.10 | 0.10 | 83 | 1012.3 |
| 20260506224054 | 13 | 6 | 9.7 | 19.3 | 0.00 | 0.10 | 0.10 | 83 | 1012.5 |
| 20260506223555 | 13 | 23 | 4.8 | 14.5 | 0.00 | 0.10 | 0.10 | 82 | 1012.5 |
| 20260506223101 | 13 | 21 | 6.4 | 14.5 | 0.00 | 0.10 | 0.10 | 82 | 1012.4 |
| 20260506222555 | 13 | 4 | 0.0 | 16.1 | 0.00 | 0.10 | 0.10 | 82 | 1012.3 |
| 20260506222055 | 13 | 0 | 1.6 | 16.1 | 0.00 | 0.10 | 0.10 | 83 | 1012.6 |
| 20260506221608 | 13 | 339 | 6.4 | 16.1 | 0.00 | 0.10 | 0.10 | 83 | 1012.4 |
| 20260506221055 | 13 | 0 | 0.0 | 9.7 | 0.00 | 0.10 | 0.10 | 81 | 1012.4 |
| 20260506220557 | 13 | 27 | 3.2 | 17.7 | 0.00 | 0.10 | 0.10 | 82 | 1012.3 |
| 20260506220057 | 13 | 22 | 1.6 | 17.7 | 0.00 | 0.10 | 0.10 | 81 | 1012.3 |
| 20260506215555 | 13 | 32 | 6.4 | 17.7 | 0.00 | 0.10 | 0.10 | 82 | 1012.4 |
| 20260506215056 | 13 | 39 | 0.0 | 17.7 | 0.00 | 0.10 | 0.10 | 80 | 1012.4 |
| 20260506214601 | 13 | 51 | 6.4 | 17.7 | 0.00 | 0.10 | 0.10 | 81 | 1012.4 |
| 20260506214052 | 13 | 321 | 1.6 | 16.1 | 0.00 | 0.10 | 0.10 | 81 | 1012.1 |
| 20260506213554 | 13 | 0 | 4.8 | 24.1 | 0.00 | 0.10 | 0.10 | 80 | 1012.1 |
| 20260506213057 | 12 | 31 | 4.8 | 24.1 | 0.00 | 0.10 | 0.10 | 80 | 1011.7 |
| 20260506212555 | 12 | 356 | 8.0 | 19.3 | 0.00 | 0.10 | 0.10 | 80 | 1011.6 |
| 20260506212056 | 12 | 23 | 4.8 | 19.3 | 0.00 | 0.10 | 0.10 | 77 | 1011.5 |
| 20260506211559 | 12 | 0 | 9.7 | 19.3 | 0.00 | 0.10 | 0.10 | 78 | 1011.8 |
| 20260506211055 | 12 | 0 | 9.7 | 19.3 | 0.00 | 0.10 | 0.10 | 76 | 1012.1 |
| 20260506210554 | 12 | 345 | 6.4 | 16.1 | 0.00 | 0.10 | 0.10 | 76 | 1012.4 |
| 20260506210057 | 12 | 0 | 4.8 | 16.1 | 0.00 | 0.10 | 0.10 | 75 | 1012.7 |
| 20260506205551 | 12 | 300 | 6.4 | 16.1 | 0.00 | 0.10 | 0.10 | 76 | 1012.6 |
| 20260506205055 | 12 | 316 | 0.0 | 16.1 | 0.00 | 0.10 | 0.10 | 74 | 1012.0 |
| 20260506204613 | 12 | 2 | 1.6 | 24.1 | 0.03 | 0.10 | 0.10 | 74 | 1012.0 |
| 20260506204055 | 12 | 14 | 9.7 | 33.8 | 0.03 | 0.10 | 0.10 | 75 | 1012.0 |
| 20260506203554 | 12 | 0 | 6.4 | 33.8 | 0.03 | 0.10 | 0.10 | 75 | 1011.9 |
| 20260506203056 | 12 | 6 | 14.5 | 32.2 | 0.05 | 0.10 | 0.10 | 73 | 1013.1 |
| 20260506202556 | 12 | 28 | 14.5 | 32.2 | 0.05 | 0.10 | 0.10 | 71 | 1013.4 |
| 20260506202055 | 12 | 7 | 20.9 | 38.6 | 0.05 | 0.10 | 0.10 | 70 | 1013.5 |
| 20260506201600 | 12 | 322 | 17.7 | 38.6 | 0.05 | 0.10 | 0.10 | 69 | 1013.5 |
| 20260506201057 | 12 | 26 | 22.5 | 38.6 | 0.05 | 0.10 | 0.10 | 68 | 1013.7 |
| 20260506200552 | 12 | 26 | 22.5 | 35.4 | 0.05 | 0.10 | 0.10 | 65 | 1013.7 |
| 20260506200053 | 12 | 323 | 22.5 | 35.4 | 0.05 | 0.10 | 0.10 | 66 | 1013.9 |
| 20260506195558 | 12 | 340 | 20.9 | 32.2 | 0.05 | 0.10 | 0.10 | 66 | 1014.0 |
| 20260506195052 | 12 | 328 | 14.5 | 40.2 | 0.05 | 0.10 | 0.10 | 65 | 1014.1 |
| 20260506194555 | 12 | 333 | 20.9 | 40.2 | 0.03 | 0.08 | 0.08 | 67 | 1014.0 |
| 20260506194054 | 12 | 340 | 25.7 | 40.2 | 0.03 | 0.08 | 0.08 | 70 | 1014.0 |
| 20260506193554 | 12 | 340 | 24.1 | 35.4 | 0.03 | 0.08 | 0.08 | 73 | 1014.0 |
| 20260506193055 | 12 | 337 | 20.9 | 33.8 | 0.00 | 0.05 | 0.05 | 74 | 1014.2 |
| 20260506192558 | 12 | 322 | 19.3 | 33.8 | 0.00 | 0.05 | 0.05 | 74 | 1014.0 |
| 20260506192056 | 12 | 316 | 14.5 | 24.1 | 0.00 | 0.05 | 0.05 | 72 | 1013.8 |
| 20260506191553 | 12 | 340 | 17.7 | 22.5 | 0.00 | 0.05 | 0.05 | 73 | 1013.9 |
| 20260506191052 | 12 | 316 | 12.9 | 22.5 | 0.00 | 0.05 | 0.05 | 73 | 1014.0 |
| 20260506190555 | 12 | 352 | 12.9 | 22.5 | 0.00 | 0.05 | 0.05 | 77 | 1013.9 |
| 20260506190054 | 12 | 313 | 12.9 | 25.7 | 0.00 | 0.05 | 0.05 | 79 | 1013.7 |
| 20260506185555 | 12 | 15 | 16.1 | 25.7 | 0.00 | 0.05 | 0.05 | 80 | 1013.8 |
| 20260506185055 | 12 | 7 | 16.1 | 25.7 | 0.00 | 0.05 | 0.05 | 80 | 1013.9 |
| 20260506184557 | 12 | 334 | 11.3 | 22.5 | 0.00 | 0.05 | 0.05 | 81 | 1013.9 |
| 20260506184052 | 12 | 323 | 11.3 | 22.5 | 0.00 | 0.05 | 0.05 | 81 | 1013.9 |
| 20260506183555 | 12 | 352 | 11.3 | 20.9 | 0.00 | 0.05 | 0.05 | 80 | 1013.7 |
| 20260506183055 | 12 | 356 | 4.8 | 22.5 | 0.00 | 0.05 | 0.05 | 77 | 1013.8 |
| 20260506182555 | 12 | 4 | 9.7 | 25.7 | 0.00 | 0.05 | 0.05 | 80 | 1013.8 |
| 20260506182054 | 12 | 1 | 17.7 | 25.7 | 0.00 | 0.05 | 0.05 | 80 | 1013.9 |
| 20260506181553 | 12 | 19 | 14.5 | 24.1 | 0.00 | 0.05 | 0.05 | 79 | 1014.0 |
| 20260506181052 | 12 | 328 | 14.5 | 25.7 | 0.00 | 0.05 | 0.05 | 78 | 1013.9 |
| 20260506180555 | 12 | 37 | 11.3 | 25.7 | 0.00 | 0.05 | 0.05 | 76 | 1013.9 |
| 20260506175554 | 12 | 6 | 14.5 | 29.0 | 0.00 | 0.05 | 0.05 | 72 | 1013.6 |
| 20260506175054 | 12 | 23 | 12.9 | 27.4 | 0.00 | 0.05 | 0.05 | 68 | 1013.5 |
| 20260506174559 | 12 | 24 | 11.3 | 27.4 | 0.00 | 0.05 | 0.05 | 65 | 1013.3 |
| 20260506174058 | 12 | 13 | 17.7 | 27.4 | 0.00 | 0.05 | 0.05 | 63 | 1013.4 |
| 20260506173552 | 12 | 342 | 8.0 | 25.7 | 0.00 | 0.05 | 0.05 | 62 | 1013.5 |
| 20260506173126 | 12 | 335 | 14.5 | 27.4 | 0.00 | 0.05 | 0.05 | 64 | 1013.6 |
| 20260506172551 | 12 | 1 | 17.7 | 27.4 | 0.00 | 0.05 | 0.05 | 68 | 1013.6 |
| 20260506172053 | 12 | 3 | 16.1 | 25.7 | 0.00 | 0.05 | 0.05 | 66 | 1013.6 |
| 20260506171555 | 12 | 8 | 16.1 | 24.1 | 0.00 | 0.05 | 0.05 | 64 | 1013.6 |
| 20260506171055 | 12 | 345 | 16.1 | 22.5 | 0.00 | 0.05 | 0.05 | 62 | 1013.7 |
| 20260506170555 | 12 | 34 | 11.3 | 24.1 | 0.00 | 0.05 | 0.05 | 61 | 1013.9 |
| 20260506170055 | 12 | 342 | 17.7 | 24.1 | 0.00 | 0.05 | 0.05 | 63 | 1013.8 |
| 20260506165554 | 12 | 333 | 16.1 | 24.1 | 0.00 | 0.05 | 0.05 | 63 | 1013.8 |
| 20260506165055 | 12 | 345 | 16.1 | 22.5 | 0.00 | 0.05 | 0.05 | 65 | 1014.1 |
| 20260506164553 | 12 | 319 | 12.9 | 27.4 | 0.00 | 0.05 | 0.05 | 63 | 1014.1 |
| 20260506164054 | 12 | 340 | 14.5 | 27.4 | 0.00 | 0.05 | 0.05 | 65 | 1014.0 |
| 20260506163554 | 12 | 338 | 12.9 | 25.7 | 0.00 | 0.05 | 0.05 | 63 | 1013.9 |
| 20260506163056 | 12 | 336 | 14.5 | 25.7 | 0.00 | 0.05 | 0.05 | 65 | 1013.6 |
| 20260506162553 | 12 | 345 | 16.1 | 29.0 | 0.00 | 0.05 | 0.05 | 65 | 1013.4 |
| 20260506162053 | 12 | 340 | 17.7 | 29.0 | 0.00 | 0.05 | 0.05 | 64 | 1013.4 |
| 20260506161603 | 12 | 324 | 16.1 | 24.1 | 0.00 | 0.05 | 0.05 | 64 | 1013.4 |
| 20260506161055 | 12 | 25 | 14.5 | 24.1 | 0.00 | 0.05 | 0.05 | 62 | 1013.4 |
| 20260506160553 | 12 | 330 | 16.1 | 25.7 | 0.00 | 0.05 | 0.05 | 64 | 1013.4 |
| 20260506160054 | 12 | 11 | 14.5 | 27.4 | 0.00 | 0.05 | 0.05 | 63 | 1013.2 |
| 20260506155553 | 12 | 14 | 14.5 | 27.4 | 0.00 | 0.05 | 0.05 | 64 | 1013.2 |
| 20260506155054 | 12 | 20 | 12.9 | 27.4 | 0.00 | 0.05 | 0.05 | 64 | 1013.1 |
| 20260506154554 | 12 | 22 | 16.1 | 29.0 | 0.00 | 0.05 | 0.05 | 63 | 1013.1 |
| 20260506154054 | 12 | 1 | 14.5 | 29.0 | 0.00 | 0.05 | 0.05 | 62 | 1013.3 |
| 20260506153553 | 12 | 354 | 16.1 | 29.0 | 0.00 | 0.05 | 0.05 | 62 | 1013.2 |
| 20260506153057 | 12 | 345 | 14.5 | 27.4 | 0.00 | 0.05 | 0.05 | 60 | 1013.0 |
| 20260506152553 | 12 | 338 | 12.9 | 24.1 | 0.00 | 0.05 | 0.05 | 59 | 1013.0 |
| 20260506152056 | 12 | 356 | 17.7 | 24.1 | 0.00 | 0.05 | 0.05 | 60 | 1012.9 |
| 20260506151603 | 12 | 342 | 17.7 | 24.1 | 0.00 | 0.05 | 0.05 | 61 | 1012.9 |
| 20260506151053 | 12 | 341 | 12.9 | 24.1 | 0.00 | 0.05 | 0.05 | 59 | 1012.7 |
| 20260506150553 | 12 | 22 | 14.5 | 22.5 | 0.00 | 0.05 | 0.05 | 59 | 1012.8 |
| 20260506150106 | 12 | 341 | 14.5 | 22.5 | 0.00 | 0.05 | 0.05 | 60 | 1012.7 |
| 20260506145553 | 12 | 329 | 14.5 | 22.5 | 0.03 | 0.05 | 0.05 | 59 | 1012.5 |
| 20260506145056 | 12 | 330 | 11.3 | 20.9 | 0.03 | 0.05 | 0.05 | 60 | 1012.5 |
| 20260506144611 | 12 | 333 | 14.5 | 20.9 | 0.03 | 0.05 | 0.05 | 62 | 1012.9 |
| 20260506144054 | 12 | 346 | 12.9 | 27.4 | 0.03 | 0.05 | 0.05 | 62 | 1012.7 |
| 20260506143554 | 12 | 330 | 16.1 | 27.4 | 0.03 | 0.05 | 0.05 | 63 | 1012.8 |
| 20260506143057 | 12 | 334 | 19.3 | 25.7 | 0.03 | 0.05 | 0.05 | 63 | 1012.8 |
| 20260506142557 | 12 | 352 | 17.7 | 25.7 | 0.03 | 0.05 | 0.05 | 64 | 1012.7 |
| 20260506142053 | 12 | 7 | 14.5 | 29.0 | 0.03 | 0.05 | 0.05 | 63 | 1012.5 |
| 20260506141554 | 12 | 324 | 17.7 | 29.0 | 0.03 | 0.05 | 0.05 | 61 | 1012.4 |
| 20260506141056 | 12 | 7 | 17.7 | 27.4 | 0.03 | 0.05 | 0.05 | 59 | 1012.3 |
| 20260506140554 | 12 | 325 | 16.1 | 24.1 | 0.03 | 0.05 | 0.05 | 57 | 1012.3 |
| 20260506140106 | 12 | 350 | 14.5 | 22.5 | 0.03 | 0.05 | 0.05 | 57 | 1012.2 |
| 20260506135553 | 13 | 326 | 14.5 | 20.9 | 0.00 | 0.03 | 0.03 | 57 | 1012.2 |
| 20260506135052 | 13 | 2 | 11.3 | 17.7 | 0.00 | 0.03 | 0.03 | 58 | 1012.0 |
| 20260506134554 | 13 | 341 | 9.7 | 17.7 | 0.00 | 0.03 | 0.03 | 59 | 1011.7 |
| 20260506134054 | 13 | 34 | 9.7 | 17.7 | 0.00 | 0.03 | 0.03 | 60 | 1011.3 |
| 20260506133553 | 13 | 319 | 9.7 | 17.7 | 0.00 | 0.03 | 0.03 | 60 | 1011.5 |
| 20260506133133 | 13 | 13 | 9.7 | 16.1 | 0.00 | 0.03 | 0.03 | 59 | 1011.5 |
| 20260506132554 | 13 | 315 | 8.0 | 17.7 | 0.00 | 0.03 | 0.03 | 61 | 1011.5 |
| 20260506132055 | 13 | 12 | 8.0 | 19.3 | 0.00 | 0.03 | 0.03 | 62 | 1011.4 |
| 20260506131558 | 13 | 342 | 12.9 | 27.4 | 0.00 | 0.03 | 0.03 | 65 | 1011.5 |
| 20260506131058 | 13 | 20 | 11.3 | 27.4 | 0.00 | 0.03 | 0.03 | 66 | 1011.5 |
| 20260506130552 | 13 | 347 | 16.1 | 27.4 | 0.00 | 0.03 | 0.03 | 67 | 1011.6 |
| 20260506130138 | 13 | 336 | 14.5 | 22.5 | 0.00 | 0.03 | 0.03 | 67 | 1011.6 |
| 20260506125554 | 13 | 359 | 9.7 | 22.5 | 0.00 | 0.03 | 0.03 | 67 | 1011.3 |
| 20260506125054 | 13 | 353 | 14.5 | 22.5 | 0.00 | 0.03 | 0.03 | 67 | 1011.4 |
| 20260506124553 | 13 | 345 | 9.7 | 17.7 | 0.00 | 0.03 | 0.03 | 66 | 1011.2 |
| 20260506124054 | 13 | 15 | 8.0 | 16.1 | 0.00 | 0.03 | 0.03 | 66 | 1011.1 |
| 20260506123554 | 13 | 9 | 9.7 | 16.1 | 0.00 | 0.03 | 0.03 | 67 | 1011.0 |
| 20260506123101 | 13 | 5 | 9.7 | 16.1 | 0.00 | 0.03 | 0.03 | 67 | 1010.8 |
| 20260506122552 | 13 | 345 | 6.4 | 12.9 | 0.03 | 0.03 | 0.03 | 66 | 1010.7 |
| 20260506122050 | 13 | 349 | 6.4 | 16.1 | 0.03 | 0.03 | 0.03 | 66 | 1010.8 |
| 20260506121600 | 13 | 18 | 6.4 | 17.7 | 0.03 | 0.03 | 0.03 | 68 | 1010.6 |
| 20260506121055 | 13 | 41 | 8.0 | 19.3 | 0.03 | 0.03 | 0.03 | 67 | 1010.5 |
| 20260506120556 | 13 | 48 | 9.7 | 19.3 | 0.03 | 0.03 | 0.03 | 69 | 1010.4 |
| 20260506120104 | 13 | 323 | 9.7 | 20.9 | 0.03 | 0.03 | 0.03 | 67 | 1010.2 |
| 20260506115555 | 13 | 357 | 9.7 | 25.7 | 0.03 | 0.03 | 0.03 | 68 | 1010.1 |
| 20260506115055 | 13 | 8 | 12.9 | 25.7 | 0.03 | 0.03 | 0.03 | 70 | 1010.3 |
| 20260506114554 | 13 | 8 | 16.1 | 25.7 | 0.03 | 0.03 | 0.03 | 70 | 1010.2 |
| 20260506114051 | 13 | 340 | 12.9 | 20.9 | 0.03 | 0.03 | 0.03 | 68 | 1010.4 |
| 20260506113552 | 13 | 21 | 12.9 | 20.9 | 0.03 | 0.03 | 0.03 | 67 | 1010.3 |
| 20260506113054 | 14 | 16 | 11.3 | 20.9 | 0.03 | 0.03 | 0.03 | 65 | 1010.2 |
| 20260506112554 | 14 | 7 | 9.7 | 16.1 | 0.00 | 0.00 | 0.00 | 66 | 1010.2 |
| 20260506112054 | 14 | 329 | 1.6 | 19.3 | 0.00 | 0.00 | 0.00 | 67 | 1009.9 |
| 20260506111557 | 14 | 34 | 9.7 | 24.1 | 0.00 | 0.00 | 0.00 | 68 | 1009.8 |
| 20260506111054 | 14 | 19 | 14.5 | 24.1 | 0.00 | 0.00 | 0.00 | 69 | 1009.8 |
| 20260506110554 | 13 | 11 | 12.9 | 19.3 | 0.00 | 0.00 | 0.00 | 70 | 1009.7 |
| 20260506110053 | 13 | 18 | 9.7 | 19.3 | 0.00 | 0.00 | 0.00 | 71 | 1009.8 |
| 20260506105552 | 14 | 17 | 8.0 | 24.1 | 0.00 | 0.00 | 0.00 | 71 | 1009.7 |
| 20260506105054 | 14 | 355 | 9.7 | 29.0 | 0.00 | 0.00 | 0.00 | 73 | 1009.6 |
| 20260506104559 | 14 | 322 | 16.1 | 35.4 | 0.00 | 0.00 | 0.00 | 75 | 1009.6 |
| 20260506104051 | 14 | 359 | 17.7 | 35.4 | 0.00 | 0.00 | 0.00 | 77 | 1009.5 |
| 20260506103554 | 14 | 350 | 25.7 | 51.5 | 0.00 | 0.00 | 0.00 | 79 | 1009.7 |
| 20260506103055 | 15 | 329 | 25.7 | 80.5 | 0.00 | 0.00 | 0.00 | 81 | 1010.0 |
| 20260506102555 | 15 | 320 | 46.7 | 80.5 | 0.00 | 0.00 | 0.00 | 83 | 1010.1 |
| 20260506102056 | 16 | 323 | 45.1 | 80.5 | 0.00 | 0.00 | 0.00 | 82 | 1009.9 |
| 20260506101556 | 18 | 322 | 9.7 | 40.2 | 0.00 | 0.00 | 0.00 | 81 | 1008.4 |
| 20260506101053 | 21 | 311 | 24.1 | 40.2 | 0.00 | 0.00 | 0.00 | 72 | 1008.3 |
| 20260506100552 | 23 | 250 | 29.0 | 40.2 | 0.00 | 0.00 | 0.00 | 81 | 1008.1 |
| 20260506100106 | 23 | 237 | 27.4 | 43.5 | 0.00 | 0.00 | 0.00 | 81 | 1007.5 |
| 20260506095552 | 23 | 226 | 29.0 | 43.5 | 0.00 | 0.00 | 0.00 | 81 | 1007.4 |
| 20260506095052 | 23 | 219 | 24.1 | 40.2 | 0.00 | 0.00 | 0.00 | 80 | 1007.0 |
| 20260506094603 | 23 | 238 | 30.6 | 40.2 | 0.00 | 0.00 | 0.00 | 80 | 1007.0 |
| 20260506094052 | 23 | 229 | 27.4 | 40.2 | 0.00 | 0.00 | 0.00 | 81 | 1006.7 |
| 20260506093551 | 23 | 221 | 27.4 | 40.2 | 0.00 | 0.00 | 0.00 | 81 | 1006.8 |
| 20260506093054 | 23 | 210 | 29.0 | 38.6 | 0.00 | 0.00 | 0.00 | 81 | 1006.8 |
| 20260506092552 | 23 | 226 | 27.4 | 43.5 | 0.00 | 0.00 | 0.00 | 81 | 1007.0 |
| 20260506092057 | 23 | 228 | 29.0 | 46.7 | 0.00 | 0.00 | 0.00 | 81 | 1007.1 |
| 20260506091607 | 23 | 223 | 29.0 | 46.7 | 0.00 | 0.00 | 0.00 | 81 | 1007.0 |
| 20260506091056 | 23 | 229 | 27.4 | 43.5 | 0.00 | 0.00 | 0.00 | 81 | 1007.4 |
| 20260506090557 | 23 | 219 | 24.1 | 41.8 | 0.00 | 0.00 | 0.00 | 81 | 1007.2 |
| 20260506090057 | 23 | 226 | 20.9 | 30.6 | 0.00 | 0.00 | 0.00 | 81 | 1007.5 |
| 20260506085556 | 23 | 238 | 20.9 | 30.6 | 0.00 | 0.00 | 0.00 | 81 | 1007.7 |
| 20260506085058 | 23 | 229 | 22.5 | 33.8 | 0.00 | 0.00 | 0.00 | 81 | 1007.6 |
| 20260506084601 | 23 | 229 | 22.5 | 35.4 | 0.00 | 0.00 | 0.00 | 81 | 1007.6 |
| 20260506084056 | 23 | 231 | 27.4 | 41.8 | 0.00 | 0.00 | 0.00 | 81 | 1007.6 |
| 20260506083556 | 23 | 224 | 29.0 | 41.8 | 0.00 | 0.00 | 0.00 | 81 | 1007.5 |
| 20260506083058 | 23 | 244 | 27.4 | 37.0 | 0.00 | 0.00 | 0.00 | 81 | 1006.8 |
| 20260506082555 | 23 | 217 | 24.1 | 37.0 | 0.00 | 0.00 | 0.00 | 81 | 1006.8 |
| 20260506082056 | 23 | 237 | 25.7 | 37.0 | 0.00 | 0.00 | 0.00 | 81 | 1006.8 |
| 20260506081609 | 23 | 196 | 25.7 | 37.0 | 0.00 | 0.00 | 0.00 | 81 | 1006.7 |
| 20260506081056 | 23 | 227 | 24.1 | 33.8 | 0.00 | 0.00 | 0.00 | 81 | 1006.9 |
| 20260506080557 | 23 | 222 | 24.1 | 35.4 | 0.00 | 0.00 | 0.00 | 81 | 1006.8 |